createdAt,value
2023-04-10T00:00:14.922Z,100.00
2023-04-10T00:02:44.460Z,100.00
2023-04-10T00:05:12.610Z,100.00
2023-04-10T00:07:40.400Z,100.00
2023-04-10T00:10:08.944Z,100.00
2023-04-10T00:12:47.579Z,100.00
2023-04-10T00:15:15.770Z,100.00
2023-04-10T00:17:43.175Z,100.00
2023-04-10T00:20:11.262Z,100.00
2023-04-10T00:22:43.470Z,100.00
2023-04-10T00:25:10.927Z,100.00
2023-04-10T00:27:41.207Z,100.00
2023-04-10T00:30:09.017Z,100.00
2023-04-10T00:32:56.649Z,100.00
2023-04-10T00:35:24.098Z,100.00
2023-04-10T00:37:52.134Z,100.00
2023-04-10T00:40:19.503Z,100.00
2023-04-10T00:42:47.536Z,100.00
2023-04-10T00:45:15.019Z,100.00
2023-04-10T00:47:47.146Z,100.00
2023-04-10T00:50:14.437Z,100.00
2023-04-10T00:52:42.204Z,100.00
2023-04-10T00:55:09.902Z,100.00
2023-04-10T00:57:37.416Z,100.00
2023-04-10T01:00:05.101Z,100.00
2023-04-10T01:02:36.118Z,100.00
2023-04-10T01:05:04.390Z,100.00
2023-04-10T01:07:43.834Z,100.00
2023-04-10T01:10:11.801Z,100.00
2023-04-10T01:13:08.948Z,100.00
2023-04-10T01:15:45.620Z,100.00
2023-04-10T01:18:19.004Z,100.00
2023-04-10T01:20:46.475Z,100.00
2023-04-10T01:23:32.977Z,100.00
2023-04-10T01:26:03.509Z,100.00
2023-04-10T01:28:42.740Z,100.00
2023-04-10T01:31:11.434Z,100.00
2023-04-10T01:33:52.489Z,100.00
2023-04-10T01:36:33.251Z,100.00
2023-04-10T01:39:00.667Z,100.00
2023-04-10T01:41:28.017Z,100.00
2023-04-10T01:43:57.074Z,100.00
2023-04-10T01:46:24.940Z,100.00
2023-04-10T01:48:58.175Z,100.00
2023-04-10T01:51:26.014Z,100.00
2023-04-10T01:53:53.575Z,100.00
2023-04-10T01:56:25.522Z,100.00
2023-04-10T01:58:52.871Z,100.00
2023-04-10T02:01:29.072Z,100.00
2023-04-10T02:03:58.345Z,100.00
2023-04-10T02:06:25.920Z,100.00
2023-04-10T02:09:09.117Z,100.00
2023-04-10T02:11:42.116Z,100.00
2023-04-10T02:14:14.496Z,100.00
2023-04-10T02:16:43.567Z,100.00
2023-04-10T02:19:12.366Z,100.00
2023-04-10T02:21:44.969Z,100.00
2023-04-10T02:24:13.002Z,100.00
2023-04-10T02:26:46.602Z,100.00
2023-04-10T02:29:21.158Z,100.00
2023-04-10T02:31:48.582Z,100.00
2023-04-10T02:34:16.244Z,100.00
2023-04-10T02:36:48.722Z,100.00
2023-04-10T02:39:16.586Z,100.00
2023-04-10T02:41:50.617Z,100.00
2023-04-10T02:44:17.986Z,100.00
2023-04-10T02:46:45.937Z,100.00
2023-04-10T02:49:14.194Z,100.00
2023-04-10T02:51:41.853Z,100.00
2023-04-10T02:54:09.928Z,100.00
2023-04-10T02:56:38.414Z,100.00
2023-04-10T02:59:06.583Z,100.00
2023-04-10T03:01:35.015Z,100.00
2023-04-10T03:04:03.941Z,100.00
2023-04-10T03:06:39.190Z,100.00
2023-04-10T03:09:07.581Z,100.00
2023-04-10T03:11:35.330Z,100.00
2023-04-10T03:14:04.174Z,100.00
2023-04-10T03:16:31.836Z,100.00
2023-04-10T03:18:59.854Z,100.00
2023-04-10T03:21:28.362Z,100.00
2023-04-10T03:23:56.187Z,100.00
2023-04-10T03:26:25.190Z,100.00
2023-04-10T03:28:54.015Z,100.00
2023-04-10T03:31:21.549Z,100.00
2023-04-10T03:33:50.094Z,100.00
2023-04-10T03:36:17.808Z,100.00
2023-04-10T03:38:45.251Z,100.00
2023-04-10T03:41:16.082Z,100.00
2023-04-10T03:43:44.865Z,100.00
2023-04-10T03:46:12.930Z,100.00
2023-04-10T03:48:42.849Z,100.00
2023-04-10T03:51:10.611Z,100.00
2023-04-10T03:53:39.094Z,100.00
2023-04-10T03:56:09.924Z,100.00
2023-04-10T03:58:38.423Z,100.00
2023-04-10T04:01:06.786Z,100.00
2023-04-10T04:03:50.891Z,100.00
2023-04-10T04:06:45.112Z,100.00
2023-04-10T04:09:26.496Z,100.00
2023-04-10T04:11:53.956Z,100.00
2023-04-10T04:14:44.170Z,100.00
2023-04-10T04:17:30.697Z,100.00
2023-04-10T04:20:21.406Z,100.00
2023-04-10T04:23:12.377Z,100.00
2023-04-10T04:26:06.540Z,100.00
2023-04-10T04:28:38.404Z,100.00
2023-04-10T04:31:32.248Z,100.00
2023-04-10T04:34:11.407Z,100.00
2023-04-10T04:36:48.802Z,100.00
2023-04-10T04:39:35.439Z,100.00
2023-04-10T04:42:11.871Z,100.00
2023-04-10T04:45:09.431Z,100.00
2023-04-10T04:48:10.378Z,100.00
2023-04-10T04:50:54.624Z,100.00
2023-04-10T04:53:54.446Z,100.00
2023-04-10T04:56:42.686Z,100.00
2023-04-10T04:59:30.734Z,100.00
2023-04-10T05:02:05.704Z,100.00
2023-04-10T05:04:42.633Z,100.00
2023-04-10T05:07:30.908Z,100.00
2023-04-10T05:10:20.553Z,100.00
2023-04-10T05:13:10.031Z,100.00
2023-04-10T05:15:48.828Z,100.00
2023-04-10T05:18:36.442Z,100.00
2023-04-10T05:21:24.515Z,100.00
2023-04-10T05:24:06.104Z,100.00
2023-04-10T05:27:00.899Z,100.00
2023-04-10T05:29:51.195Z,100.00
2023-04-10T05:32:49.482Z,100.00
2023-04-10T05:35:49.140Z,100.00
2023-04-10T05:38:38.666Z,100.00
2023-04-10T05:41:15.023Z,100.00
2023-04-10T05:44:06.474Z,100.00
2023-04-10T05:47:00.736Z,100.00
2023-04-10T05:49:40.177Z,100.00
2023-04-10T05:52:33.835Z,100.00
2023-04-10T05:55:13.378Z,100.00
2023-04-10T05:57:43.498Z,100.00
2023-04-10T06:00:31.227Z,100.00
2023-04-10T06:03:10.944Z,100.00
2023-04-10T06:05:47.237Z,100.00
2023-04-10T06:08:15.845Z,100.00
2023-04-10T06:10:48.442Z,100.00
2023-04-10T06:13:16.365Z,100.00
2023-04-10T06:15:49.364Z,100.00
2023-04-10T06:18:19.467Z,100.00
2023-04-10T06:20:48.881Z,100.00
2023-04-10T06:23:20.840Z,100.00
2023-04-10T06:25:49.310Z,100.00
2023-04-10T06:28:16.975Z,100.00
2023-04-10T06:30:46.710Z,100.00
2023-04-10T06:33:15.810Z,100.00
2023-04-10T06:35:45.001Z,100.00
2023-04-10T06:38:12.846Z,100.00
2023-04-10T06:40:40.816Z,100.00
2023-04-10T06:43:07.954Z,100.00
2023-04-10T06:45:40.239Z,100.00
2023-04-10T06:48:07.878Z,100.00
2023-04-10T06:50:36.497Z,100.00
2023-04-10T06:53:04.137Z,100.00
2023-04-10T06:55:31.911Z,100.00
2023-04-10T06:58:19.355Z,100.00
2023-04-10T07:00:48.537Z,100.00
2023-04-10T07:03:17.190Z,100.00
2023-04-10T07:05:44.561Z,100.00
2023-04-10T07:08:12.444Z,100.00
2023-04-10T07:10:41.322Z,100.00
2023-04-10T07:13:08.711Z,100.00
2023-04-10T07:15:41.558Z,100.00
2023-04-10T07:18:09.987Z,100.00
2023-04-10T07:20:37.848Z,100.00
2023-04-10T07:23:11.514Z,100.00
2023-04-10T07:25:40.908Z,100.00
2023-04-10T07:28:08.173Z,100.00
2023-04-10T07:30:38.405Z,100.00
2023-04-10T07:33:06.543Z,100.00
2023-04-10T07:35:34.985Z,100.00
2023-04-10T07:38:04.135Z,100.00
2023-04-10T07:40:31.541Z,100.00
2023-04-10T07:42:58.874Z,100.00
2023-04-10T07:55:20.201Z,100.00
2023-04-10T07:57:48.321Z,100.00
2023-04-10T08:00:20.013Z,100.00
2023-04-10T08:02:47.952Z,100.00
2023-04-10T08:05:15.602Z,100.00
2023-04-10T08:07:43.678Z,100.00
2023-04-10T08:10:11.339Z,100.00
2023-04-10T08:12:40.133Z,100.00
2023-04-10T08:15:07.805Z,100.00
2023-04-10T08:17:41.192Z,100.00
2023-04-10T08:20:10.724Z,100.00
2023-04-10T08:22:38.352Z,100.00
2023-04-10T08:25:11.835Z,100.00
2023-04-10T08:27:55.430Z,100.00
2023-04-10T08:30:24.278Z,100.00
2023-04-10T08:32:55.798Z,100.00
2023-04-10T08:35:26.457Z,100.00
2023-04-10T08:38:11.823Z,100.00
2023-04-10T08:40:41.278Z,100.00
2023-04-10T08:43:13.472Z,100.00
2023-04-10T08:45:44.082Z,100.00
2023-04-10T08:48:11.695Z,100.00
2023-04-10T08:50:42.897Z,100.00
2023-04-10T08:53:11.221Z,100.00
2023-04-10T08:55:43.734Z,100.00
2023-04-10T08:58:13.397Z,100.00
2023-04-10T09:00:40.832Z,100.00
2023-04-10T09:03:11.406Z,100.00
2023-04-10T09:05:39.452Z,100.00
2023-04-10T09:08:06.908Z,100.00
2023-04-10T09:10:35.361Z,100.00
2023-04-10T09:13:03.108Z,100.00
2023-04-10T09:15:30.700Z,100.00
2023-04-10T09:18:01.167Z,100.00
2023-04-10T09:20:29.903Z,100.00
2023-04-10T09:22:57.279Z,100.00
2023-04-10T09:25:35.915Z,100.00
2023-04-10T09:28:07.184Z,100.00
2023-04-10T09:30:39.616Z,100.00
2023-04-10T09:33:20.895Z,100.00
2023-04-10T09:35:48.518Z,100.00
2023-04-10T09:38:20.560Z,99.55
2023-04-10T09:40:54.957Z,97.81
2023-04-10T09:43:26.492Z,96.28
2023-04-10T09:45:57.233Z,96.31
2023-04-10T09:48:25.145Z,96.74
2023-04-10T09:50:52.552Z,94.38
2023-04-10T09:53:22.576Z,91.65
2023-04-10T09:55:50.558Z,90.24
2023-04-10T09:58:18.646Z,87.41
2023-04-10T10:00:47.225Z,86.00
2023-04-10T10:03:16.851Z,86.71
2023-04-10T10:05:48.356Z,85.67
2023-04-10T10:08:17.239Z,84.86
2023-04-10T10:10:47.380Z,82.33
2023-04-10T10:13:17.479Z,82.24
2023-04-10T10:15:52.029Z,80.55
2023-04-10T10:18:40.688Z,80.98
2023-04-10T10:21:08.928Z,80.74
2023-04-10T10:23:43.865Z,78.84
2023-04-10T10:26:11.522Z,77.57
2023-04-10T10:28:40.118Z,75.66
2023-04-10T10:31:08.161Z,74.86
2023-04-10T10:33:36.678Z,74.39
2023-04-10T10:36:04.422Z,73.70
2023-04-10T10:38:32.190Z,72.99
2023-04-10T10:41:10.636Z,74.55
2023-04-10T10:43:43.894Z,74.74
2023-04-10T10:46:12.706Z,73.25
2023-04-10T10:48:40.138Z,71.38
2023-04-10T10:51:08.416Z,69.63
2023-04-10T10:53:40.171Z,69.10
2023-04-10T10:56:19.433Z,69.23
2023-04-10T10:58:47.691Z,67.96
2023-04-10T11:01:15.295Z,67.92
2023-04-10T11:03:46.550Z,65.92
2023-04-10T11:06:16.494Z,64.67
2023-04-10T11:08:47.697Z,63.32
2023-04-10T11:11:21.248Z,63.56
2023-04-10T11:13:49.896Z,63.45
2023-04-10T11:16:17.937Z,61.65
2023-04-10T11:21:31.247Z,56.40
2023-04-10T11:24:03.455Z,55.63
2023-04-10T11:26:40.813Z,53.43
2023-04-10T11:29:17.343Z,53.65
2023-04-10T11:31:48.511Z,53.11
2023-04-10T11:34:16.030Z,51.91
2023-04-10T11:36:44.095Z,51.55
2023-04-10T11:39:19.995Z,51.94
2023-04-10T11:41:48.409Z,52.22
2023-04-10T11:44:20.744Z,51.29
2023-04-10T11:46:50.486Z,49.44
2023-04-10T11:49:18.371Z,49.59
2023-04-10T11:51:49.466Z,49.45
2023-04-10T11:54:18.249Z,48.73
2023-04-10T11:56:56.764Z,48.20
2023-04-10T11:59:24.736Z,47.97
2023-04-10T12:01:53.958Z,46.55
2023-04-10T12:04:21.982Z,46.46
2023-04-10T12:06:51.620Z,46.90
2023-04-10T12:09:20.194Z,46.34
2023-04-10T12:11:51.232Z,46.20
2023-04-10T12:14:20.429Z,44.91
2023-04-10T12:16:47.786Z,44.26
2023-04-10T12:19:23.226Z,44.43
2023-04-10T12:21:51.003Z,44.02
2023-04-10T12:24:40.200Z,43.64
2023-04-10T12:27:08.493Z,43.92
2023-04-10T12:29:35.789Z,43.91
2023-04-10T12:32:07.698Z,43.03
2023-04-10T12:34:38.520Z,42.90
2023-04-10T12:37:06.674Z,42.75
2023-04-10T12:39:34.951Z,42.64
2023-04-10T12:42:16.565Z,42.21
2023-04-10T12:44:54.747Z,41.63
2023-04-10T12:47:22.574Z,40.88
2023-04-10T12:50:07.891Z,41.54
2023-04-10T12:52:35.952Z,41.47
2023-04-10T12:55:10.987Z,41.43
2023-04-10T12:57:39.156Z,41.55
2023-04-10T13:00:09.176Z,41.17
2023-04-10T13:02:37.622Z,41.36
2023-04-10T13:05:05.928Z,41.57
2023-04-10T13:07:33.126Z,41.24
2023-04-10T13:10:01.145Z,41.30
2023-04-10T13:12:34.381Z,41.66
2023-04-10T13:15:02.526Z,41.51
2023-04-10T13:17:30.535Z,41.53
2023-04-10T13:19:58.244Z,41.75
2023-04-10T13:22:25.873Z,41.90
2023-04-10T13:24:53.260Z,42.18
2023-04-10T13:27:24.309Z,42.50
2023-04-10T13:29:51.972Z,42.62
2023-04-10T13:32:19.344Z,43.37
2023-04-10T13:34:47.890Z,43.75
2023-04-10T13:37:15.042Z,43.09
2023-04-10T13:39:43.224Z,43.06
2023-04-10T13:42:11.203Z,42.65
2023-04-10T13:44:38.447Z,42.86
2023-04-10T13:47:07.538Z,43.32
2023-04-10T13:49:37.024Z,43.98
2023-04-10T13:52:04.560Z,44.14
2023-04-10T13:54:31.950Z,44.35
2023-04-10T13:56:59.342Z,44.61
2023-04-10T13:59:27.380Z,44.81
2023-04-10T14:01:55.377Z,44.92
2023-04-10T14:04:23.314Z,45.22
2023-04-10T14:06:52.753Z,45.57
2023-04-10T14:09:20.891Z,45.42
2023-04-10T14:11:48.662Z,45.36
2023-04-10T14:14:16.117Z,45.34
2023-04-10T14:16:43.780Z,45.24
2023-04-10T14:19:11.431Z,45.13
2023-04-10T14:21:40.632Z,45.52
2023-04-10T14:24:07.984Z,45.72
2023-04-10T14:26:35.389Z,46.15
2023-04-10T14:29:04.442Z,46.69
2023-04-10T14:34:03.848Z,47.26
2023-04-10T14:36:32.431Z,47.70
2023-04-10T14:39:00.198Z,47.66
2023-04-10T14:41:28.571Z,47.94
2023-04-10T14:43:56.112Z,48.49
2023-04-10T14:46:25.155Z,49.04
2023-04-10T14:48:52.923Z,49.34
2023-04-10T14:51:24.034Z,49.23
2023-04-10T14:53:52.754Z,49.82
2023-04-10T14:56:21.136Z,50.49
2023-04-10T14:58:53.853Z,50.78
2023-04-10T15:01:21.240Z,50.96
2023-04-10T15:03:48.898Z,51.09
2023-04-10T15:06:16.659Z,51.66
2023-04-10T15:08:44.271Z,52.60
2023-04-10T15:11:11.785Z,53.03
2023-04-10T15:13:40.201Z,53.99
2023-04-10T15:16:08.044Z,54.62
2023-04-10T15:18:35.892Z,55.12
2023-04-10T15:21:04.410Z,55.67
2023-04-10T15:23:31.827Z,56.19
2023-04-10T15:25:59.487Z,57.15
2023-04-10T15:28:27.698Z,57.79
2023-04-10T15:30:55.880Z,58.08
2023-04-10T15:33:23.814Z,58.81
2023-04-10T15:35:51.625Z,58.88
2023-04-10T15:38:19.491Z,59.41
2023-04-10T15:40:47.280Z,59.78
2023-04-10T15:43:14.649Z,60.40
2023-04-10T15:45:46.053Z,60.87
2023-04-10T15:48:13.560Z,61.38
2023-04-10T15:50:43.848Z,61.94
2023-04-10T15:53:11.951Z,62.90
2023-04-10T15:55:40.255Z,63.18
2023-04-10T15:58:10.826Z,63.81
2023-04-10T16:00:40.571Z,64.07
2023-04-10T16:03:08.768Z,64.13
2023-04-10T16:05:38.166Z,64.62
2023-04-10T16:08:05.847Z,64.78
2023-04-10T16:10:33.375Z,65.62
2023-04-10T16:13:06.358Z,66.26
2023-04-10T16:15:34.362Z,66.57
2023-04-10T16:18:05.508Z,67.34
2023-04-10T16:20:33.231Z,68.11
2023-04-10T16:23:01.853Z,68.35
2023-04-10T16:25:30.908Z,68.23
2023-04-10T16:28:00.912Z,68.50
2023-04-10T16:30:29.298Z,68.67
2023-04-10T16:32:58.598Z,69.19
2023-04-10T16:35:27.170Z,69.30
2023-04-10T16:37:55.975Z,70.14
2023-04-10T16:40:27.219Z,70.47
2023-04-10T16:42:55.004Z,70.94
2023-04-10T16:45:22.334Z,71.11
2023-04-10T16:47:49.846Z,71.47
2023-04-10T16:50:17.760Z,72.14
2023-04-10T16:52:45.911Z,73.05
2023-04-10T16:55:13.591Z,73.63
2023-04-10T16:57:41.870Z,74.36
2023-04-10T17:00:09.837Z,74.56
2023-04-10T17:02:39.909Z,74.89
2023-04-10T17:05:07.526Z,74.91
2023-04-10T17:07:39.592Z,76.34
2023-04-10T17:10:07.855Z,78.15
2023-04-10T17:12:36.007Z,78.77
2023-04-10T17:15:11.169Z,79.26
2023-04-10T17:17:40.266Z,80.11
2023-04-10T17:20:09.467Z,80.95
2023-04-10T17:22:38.388Z,81.29
2023-04-10T17:25:08.214Z,81.66
2023-04-10T17:27:37.799Z,82.03
2023-04-10T17:30:10.595Z,82.88
2023-04-10T17:32:43.443Z,83.35
2023-04-10T17:35:10.825Z,83.20
2023-04-10T17:37:41.387Z,83.44
2023-04-10T17:40:13.803Z,84.34
2023-04-10T17:42:44.377Z,84.18
2023-04-10T17:45:16.661Z,84.20
2023-04-10T17:48:06.584Z,83.85
2023-04-10T17:50:34.751Z,83.92
2023-04-10T17:53:02.207Z,84.50
2023-04-10T17:55:39.591Z,85.22
2023-04-10T17:58:07.202Z,85.22
2023-04-10T18:00:35.022Z,85.82
2023-04-10T18:03:05.619Z,86.05
2023-04-10T18:05:43.545Z,86.57
2023-04-10T18:08:11.139Z,85.65
2023-04-10T18:10:38.766Z,85.19
2023-04-10T18:13:10.116Z,85.64
2023-04-10T18:15:37.775Z,85.19
2023-04-10T18:18:05.329Z,84.57
2023-04-10T18:20:33.084Z,83.54
2023-04-10T18:23:01.558Z,82.75
2023-04-10T18:25:30.235Z,82.90
2023-04-10T18:28:13.889Z,83.83
2023-04-10T18:30:43.850Z,83.59
2023-04-10T18:33:12.491Z,82.66
2023-04-10T18:35:42.216Z,82.88
2023-04-10T18:38:09.783Z,85.62
2023-04-10T18:40:37.951Z,86.37
2023-04-10T18:43:05.525Z,86.00
2023-04-10T18:45:34.533Z,85.91
2023-04-10T18:48:03.815Z,85.48
2023-04-10T18:50:36.478Z,85.74
2023-04-10T18:53:10.696Z,86.26
2023-04-10T18:55:39.071Z,85.76
2023-04-10T18:58:06.641Z,85.26
2023-04-10T19:00:35.520Z,86.19
2023-04-10T19:03:04.350Z,86.02
2023-04-10T19:05:33.523Z,86.08
2023-04-10T19:08:04.239Z,86.39
2023-04-10T19:10:33.333Z,87.85
2023-04-10T19:13:05.703Z,87.97
2023-04-10T19:15:39.427Z,87.31
2023-04-10T19:18:07.208Z,87.16
2023-04-10T19:20:49.231Z,87.14
2023-04-10T19:23:19.271Z,87.76
2023-04-10T19:25:46.979Z,87.99
2023-04-10T19:28:14.437Z,88.07
2023-04-10T19:31:01.826Z,88.36
2023-04-10T19:33:30.016Z,88.65
2023-04-10T19:35:58.631Z,89.06
2023-04-10T19:38:26.957Z,89.77
2023-04-10T19:40:54.417Z,90.28
2023-04-10T19:43:22.198Z,90.52
2023-04-10T19:45:50.084Z,90.70
2023-04-10T19:48:17.094Z,90.56
2023-04-10T19:50:45.682Z,90.64
2023-04-10T19:53:15.083Z,91.17
2023-04-10T19:55:43.668Z,91.71
2023-04-10T19:58:30.063Z,93.05
2023-04-10T20:01:02.641Z,93.26
2023-04-10T20:03:33.245Z,93.60
2023-04-10T20:06:01.855Z,94.34
2023-04-10T20:08:30.231Z,94.69
2023-04-10T20:10:58.495Z,94.49
2023-04-10T20:13:25.965Z,94.97
2023-04-10T20:15:53.540Z,95.37
2023-04-10T20:18:21.812Z,95.53
2023-04-10T20:20:49.152Z,96.01
2023-04-10T20:23:20.704Z,96.75
2023-04-10T20:25:48.604Z,97.53
2023-04-10T20:28:19.093Z,98.02
2023-04-10T20:30:51.271Z,98.13
2023-04-10T20:33:20.339Z,98.53
2023-04-10T20:35:47.845Z,99.07
2023-04-10T20:38:17.321Z,99.68
2023-04-10T20:40:45.084Z,99.99
2023-04-10T20:43:18.164Z,100.00
2023-04-10T20:45:45.834Z,100.00
2023-04-10T20:48:13.244Z,100.00
2023-04-10T20:50:42.488Z,100.00
2023-04-10T20:53:09.660Z,100.00
2023-04-10T20:55:37.915Z,100.00
2023-04-10T20:58:05.713Z,100.00
2023-04-10T21:00:34.876Z,100.00
2023-04-10T21:03:03.284Z,100.00
2023-04-10T21:05:31.853Z,100.00
2023-04-10T21:08:00.010Z,100.00
2023-04-10T21:10:27.980Z,100.00
2023-04-10T21:12:55.552Z,100.00
2023-04-10T21:15:24.199Z,100.00
2023-04-10T21:17:51.728Z,100.00
2023-04-10T21:20:19.086Z,100.00
2023-04-10T21:22:47.211Z,100.00
2023-04-10T21:25:14.769Z,100.00
2023-04-10T21:27:47.185Z,100.00
2023-04-10T21:30:14.907Z,100.00
2023-04-10T21:32:42.685Z,100.00
2023-04-10T21:35:10.566Z,100.00
2023-04-10T21:37:37.921Z,100.00
2023-04-10T21:40:06.727Z,100.00
2023-04-10T21:42:36.435Z,100.00
2023-04-10T21:45:05.275Z,100.00
2023-04-10T21:47:33.354Z,100.00
2023-04-10T21:50:00.972Z,100.00
2023-04-10T21:52:28.262Z,100.00
2023-04-10T21:54:56.789Z,100.00
2023-04-10T21:57:24.402Z,100.00
2023-04-10T21:59:52.636Z,100.00
2023-04-10T22:02:20.418Z,100.00
2023-04-10T22:04:53.979Z,100.00
2023-04-10T22:07:22.111Z,100.00
2023-04-10T22:09:49.923Z,100.00
2023-04-10T22:12:17.230Z,100.00
2023-04-10T22:14:45.815Z,100.00
2023-04-10T22:17:13.372Z,100.00
2023-04-10T22:19:40.967Z,100.00
2023-04-10T22:22:09.345Z,100.00
2023-04-10T22:24:36.780Z,100.00
2023-04-10T22:27:04.244Z,100.00
2023-04-10T22:29:32.911Z,100.00
2023-04-10T22:32:00.366Z,100.00
2023-04-10T22:34:27.823Z,100.00
2023-04-10T22:36:55.793Z,100.00
2023-04-10T22:39:23.054Z,100.00
2023-04-10T22:41:50.711Z,100.00
2023-04-10T22:44:18.172Z,100.00
2023-04-10T22:46:49.174Z,100.00
2023-04-10T22:49:16.824Z,100.00
2023-04-10T22:51:46.690Z,100.00
2023-04-10T22:54:15.796Z,100.00
2023-04-10T22:56:43.846Z,100.00
2023-04-10T22:59:12.012Z,100.00
2023-04-10T23:01:40.037Z,100.00
2023-04-10T23:04:07.618Z,100.00
2023-04-10T23:06:36.126Z,100.00
2023-04-10T23:09:03.479Z,100.00
2023-04-10T23:11:37.593Z,100.00
2023-04-10T23:14:05.581Z,100.00
2023-04-10T23:16:33.216Z,100.00
2023-04-10T23:19:00.787Z,100.00
2023-04-10T23:21:29.166Z,100.00
2023-04-10T23:23:56.580Z,100.00
2023-04-10T23:26:23.914Z,100.00
2023-04-10T23:28:51.130Z,100.00
2023-04-10T23:31:18.921Z,100.00
2023-04-10T23:33:46.564Z,100.00
2023-04-10T23:36:14.036Z,100.00
2023-04-10T23:38:41.930Z,100.00
2023-04-10T23:41:10.758Z,100.00
2023-04-10T23:43:40.778Z,100.00
2023-04-10T23:46:08.094Z,100.00
2023-04-10T23:48:36.716Z,100.00
2023-04-10T23:51:07.736Z,100.00
2023-04-10T23:53:35.189Z,100.00
2023-04-10T23:56:07.414Z,100.00
2023-04-10T23:58:34.584Z,100.00
